sensor_id;sensor_type;location;lat;lon;timestamp;P1;durP1;ratioP1;P2;durP2;ratioP2
12910;SDS011;6523;49.758;6.120;2022-07-23T00:00:02;12.37;;;10.63;;
12910;SDS011;6523;49.758;6.120;2022-07-23T00:02:28;12.17;;;10.87;;
12910;SDS011;6523;49.758;6.120;2022-07-23T00:04:54;11.67;;;10.47;;
12910;SDS011;6523;49.758;6.120;2022-07-23T00:07:19;11.20;;;10.10;;
12910;SDS011;6523;49.758;6.120;2022-07-23T00:09:45;12.03;;;10.73;;
12910;SDS011;6523;49.758;6.120;2022-07-23T00:12:10;11.97;;;10.67;;
12910;SDS011;6523;49.758;6.120;2022-07-23T00:14:36;12.03;;;10.73;;
12910;SDS011;6523;49.758;6.120;2022-07-23T00:17:02;12.10;;;10.90;;
12910;SDS011;6523;49.758;6.120;2022-07-23T00:19:27;11.07;;;9.97;;
12910;SDS011;6523;49.758;6.120;2022-07-23T00:21:54;12.57;;;11.27;;
12910;SDS011;6523;49.758;6.120;2022-07-23T00:24:20;11.43;;;10.33;;
12910;SDS011;6523;49.758;6.120;2022-07-23T00:26:45;12.40;;;10.80;;
12910;SDS011;6523;49.758;6.120;2022-07-23T00:29:11;12.13;;;10.83;;
12910;SDS011;6523;49.758;6.120;2022-07-23T00:31:37;12.67;;;11.47;;
12910;SDS011;6523;49.758;6.120;2022-07-23T00:34:02;11.17;;;10.07;;
12910;SDS011;6523;49.758;6.120;2022-07-23T00:36:28;12.43;;;11.23;;
12910;SDS011;6523;49.758;6.120;2022-07-23T00:38:56;12.40;;;11.13;;
12910;SDS011;6523;49.758;6.120;2022-07-23T00:41:21;11.83;;;10.60;;
12910;SDS011;6523;49.758;6.120;2022-07-23T00:43:47;12.50;;;10.83;;
12910;SDS011;6523;49.758;6.120;2022-07-23T00:46:13;11.83;;;10.63;;
12910;SDS011;6523;49.758;6.120;2022-07-23T00:48:47;14.67;;;11.30;;
12910;SDS011;6523;49.758;6.120;2022-07-23T00:51:14;11.40;;;10.27;;
12910;SDS011;6523;49.758;6.120;2022-07-23T00:53:41;13.73;;;12.33;;
12910;SDS011;6523;49.758;6.120;2022-07-23T00:56:07;13.77;;;12.30;;
12910;SDS011;6523;49.758;6.120;2022-07-23T00:58:33;15.87;;;11.87;;
12910;SDS011;6523;49.758;6.120;2022-07-23T01:01:01;13.63;;;12.23;;
12910;SDS011;6523;49.758;6.120;2022-07-23T01:03:26;15.53;;;12.40;;
12910;SDS011;6523;49.758;6.120;2022-07-23T01:05:52;13.63;;;11.90;;
12910;SDS011;6523;49.758;6.120;2022-07-23T01:08:18;13.30;;;11.90;;
12910;SDS011;6523;49.758;6.120;2022-07-23T01:10:44;13.77;;;12.03;;
12910;SDS011;6523;49.758;6.120;2022-07-23T01:13:11;15.83;;;11.53;;
12910;SDS011;6523;49.758;6.120;2022-07-23T01:15:37;12.43;;;11.23;;
12910;SDS011;6523;49.758;6.120;2022-07-23T01:18:04;13.20;;;11.80;;
12910;SDS011;6523;49.758;6.120;2022-07-23T01:20:30;12.33;;;10.93;;
12910;SDS011;6523;49.758;6.120;2022-07-23T01:22:57;13.40;;;10.93;;
12910;SDS011;6523;49.758;6.120;2022-07-23T01:25:23;14.53;;;11.70;;
12910;SDS011;6523;49.758;6.120;2022-07-23T01:27:49;12.57;;;11.13;;
12910;SDS011;6523;49.758;6.120;2022-07-23T01:30:16;13.77;;;12.17;;
12910;SDS011;6523;49.758;6.120;2022-07-23T01:32:41;15.03;;;11.60;;
12910;SDS011;6523;49.758;6.120;2022-07-23T01:35:07;13.10;;;11.80;;
12910;SDS011;6523;49.758;6.120;2022-07-23T01:37:35;13.67;;;12.20;;
12910;SDS011;6523;49.758;6.120;2022-07-23T01:40:01;14.23;;;11.63;;
12910;SDS011;6523;49.758;6.120;2022-07-23T01:42:27;14.13;;;12.73;;
12910;SDS011;6523;49.758;6.120;2022-07-23T01:44:53;14.00;;;12.27;;
12910;SDS011;6523;49.758;6.120;2022-07-23T01:47:18;16.10;;;13.57;;
12910;SDS011;6523;49.758;6.120;2022-07-23T01:49:44;14.27;;;12.37;;
12910;SDS011;6523;49.758;6.120;2022-07-23T01:52:09;16.03;;;12.33;;
12910;SDS011;6523;49.758;6.120;2022-07-23T01:54:36;16.23;;;12.53;;
12910;SDS011;6523;49.758;6.120;2022-07-23T01:57:03;21.70;;;13.27;;
12910;SDS011;6523;49.758;6.120;2022-07-23T01:59:29;13.73;;;12.03;;
12910;SDS011;6523;49.758;6.120;2022-07-23T02:01:55;14.60;;;12.27;;
12910;SDS011;6523;49.758;6.120;2022-07-23T02:04:21;14.17;;;12.67;;
12910;SDS011;6523;49.758;6.120;2022-07-23T02:06:48;15.30;;;12.33;;
12910;SDS011;6523;49.758;6.120;2022-07-23T02:09:14;15.13;;;12.03;;
12910;SDS011;6523;49.758;6.120;2022-07-23T02:11:40;14.60;;;11.73;;
12910;SDS011;6523;49.758;6.120;2022-07-23T02:14:05;13.07;;;11.53;;
12910;SDS011;6523;49.758;6.120;2022-07-23T02:16:31;16.20;;;13.60;;
12910;SDS011;6523;49.758;6.120;2022-07-23T02:18:57;14.97;;;13.37;;
12910;SDS011;6523;49.758;6.120;2022-07-23T02:21:22;15.63;;;12.97;;
12910;SDS011;6523;49.758;6.120;2022-07-23T02:23:48;14.80;;;13.27;;
12910;SDS011;6523;49.758;6.120;2022-07-23T02:26:14;13.57;;;12.17;;
12910;SDS011;6523;49.758;6.120;2022-07-23T02:28:39;15.63;;;13.27;;
12910;SDS011;6523;49.758;6.120;2022-07-23T02:31:05;15.07;;;12.97;;
12910;SDS011;6523;49.758;6.120;2022-07-23T02:33:32;14.93;;;13.40;;
12910;SDS011;6523;49.758;6.120;2022-07-23T02:35:58;15.23;;;12.97;;
12910;SDS011;6523;49.758;6.120;2022-07-23T02:38:24;17.90;;;14.77;;
12910;SDS011;6523;49.758;6.120;2022-07-23T02:40:49;15.93;;;13.43;;
12910;SDS011;6523;49.758;6.120;2022-07-23T02:43:15;19.20;;;14.53;;
12910;SDS011;6523;49.758;6.120;2022-07-23T02:45:41;15.57;;;13.20;;
12910;SDS011;6523;49.758;6.120;2022-07-23T02:48:06;14.97;;;13.37;;
12910;SDS011;6523;49.758;6.120;2022-07-23T02:50:32;15.37;;;13.33;;
12910;SDS011;6523;49.758;6.120;2022-07-23T02:52:57;16.87;;;14.07;;
12910;SDS011;6523;49.758;6.120;2022-07-23T02:55:23;15.93;;;13.63;;
12910;SDS011;6523;49.758;6.120;2022-07-23T02:57:49;17.73;;;13.63;;
12910;SDS011;6523;49.758;6.120;2022-07-23T03:00:14;15.33;;;13.23;;
12910;SDS011;6523;49.758;6.120;2022-07-23T03:02:40;15.27;;;12.93;;
12910;SDS011;6523;49.758;6.120;2022-07-23T03:05:06;19.13;;;14.40;;
12910;SDS011;6523;49.758;6.120;2022-07-23T03:07:31;16.63;;;12.30;;
12910;SDS011;6523;49.758;6.120;2022-07-23T03:09:57;16.87;;;13.23;;
12910;SDS011;6523;49.758;6.120;2022-07-23T03:12:23;16.57;;;13.47;;
12910;SDS011;6523;49.758;6.120;2022-07-23T03:14:48;14.63;;;12.80;;
12910;SDS011;6523;49.758;6.120;2022-07-23T03:17:14;18.37;;;14.40;;
12910;SDS011;6523;49.758;6.120;2022-07-23T03:19:39;16.17;;;13.23;;
12910;SDS011;6523;49.758;6.120;2022-07-23T03:22:05;19.07;;;14.80;;
12910;SDS011;6523;49.758;6.120;2022-07-23T03:24:31;16.73;;;13.53;;
12910;SDS011;6523;49.758;6.120;2022-07-23T03:27:15;21.03;;;16.00;;
12910;SDS011;6523;49.758;6.120;2022-07-23T03:29:41;16.70;;;14.13;;
12910;SDS011;6523;49.758;6.120;2022-07-23T03:32:07;18.13;;;14.13;;
12910;SDS011;6523;49.758;6.120;2022-07-23T03:34:32;16.70;;;13.30;;
12910;SDS011;6523;49.758;6.120;2022-07-23T03:36:58;18.50;;;14.03;;
12910;SDS011;6523;49.758;6.120;2022-07-23T03:39:24;16.40;;;14.67;;
12910;SDS011;6523;49.758;6.120;2022-07-23T03:41:49;16.60;;;12.60;;
12910;SDS011;6523;49.758;6.120;2022-07-23T03:44:15;18.80;;;14.00;;
12910;SDS011;6523;49.758;6.120;2022-07-23T03:46:40;17.03;;;13.90;;
12910;SDS011;6523;49.758;6.120;2022-07-23T03:49:06;18.03;;;14.30;;
12910;SDS011;6523;49.758;6.120;2022-07-23T03:51:32;16.17;;;14.23;;
12910;SDS011;6523;49.758;6.120;2022-07-23T03:53:57;17.87;;;14.30;;
12910;SDS011;6523;49.758;6.120;2022-07-23T03:56:23;17.67;;;14.50;;
12910;SDS011;6523;49.758;6.120;2022-07-23T03:58:49;16.47;;;13.10;;
12910;SDS011;6523;49.758;6.120;2022-07-23T04:01:15;16.73;;;14.13;;
12910;SDS011;6523;49.758;6.120;2022-07-23T04:03:40;15.07;;;13.17;;
12910;SDS011;6523;49.758;6.120;2022-07-23T04:06:06;20.50;;;15.53;;
12910;SDS011;6523;49.758;6.120;2022-07-23T04:08:32;18.97;;;15.33;;
12910;SDS011;6523;49.758;6.120;2022-07-23T04:10:57;17.30;;;14.10;;
12910;SDS011;6523;49.758;6.120;2022-07-23T04:13:23;17.77;;;15.47;;
12910;SDS011;6523;49.758;6.120;2022-07-23T04:15:49;17.47;;;14.90;;
12910;SDS011;6523;49.758;6.120;2022-07-23T04:18:15;19.57;;;15.00;;
12910;SDS011;6523;49.758;6.120;2022-07-23T04:20:42;18.70;;;14.83;;
12910;SDS011;6523;49.758;6.120;2022-07-23T04:23:09;18.00;;;14.10;;
12910;SDS011;6523;49.758;6.120;2022-07-23T04:25:34;19.20;;;14.57;;
12910;SDS011;6523;49.758;6.120;2022-07-23T04:28:00;19.00;;;14.50;;
12910;SDS011;6523;49.758;6.120;2022-07-23T04:30:26;18.07;;;14.87;;
12910;SDS011;6523;49.758;6.120;2022-07-23T04:32:52;19.50;;;15.27;;
12910;SDS011;6523;49.758;6.120;2022-07-23T04:35:18;16.37;;;13.73;;
12910;SDS011;6523;49.758;6.120;2022-07-23T04:37:43;17.50;;;14.60;;
12910;SDS011;6523;49.758;6.120;2022-07-23T04:40:09;18.50;;;14.97;;
12910;SDS011;6523;49.758;6.120;2022-07-23T04:42:35;16.80;;;14.10;;
12910;SDS011;6523;49.758;6.120;2022-07-23T04:45:01;17.77;;;14.77;;
12910;SDS011;6523;49.758;6.120;2022-07-23T04:47:28;19.70;;;15.63;;
12910;SDS011;6523;49.758;6.120;2022-07-23T04:49:54;20.83;;;15.97;;
12910;SDS011;6523;49.758;6.120;2022-07-23T04:52:20;21.50;;;16.60;;
12910;SDS011;6523;49.758;6.120;2022-07-23T04:54:45;23.50;;;16.60;;
12910;SDS011;6523;49.758;6.120;2022-07-23T04:57:11;20.17;;;17.00;;
12910;SDS011;6523;49.758;6.120;2022-07-23T04:59:36;24.03;;;17.03;;
12910;SDS011;6523;49.758;6.120;2022-07-23T05:02:02;19.20;;;15.93;;
12910;SDS011;6523;49.758;6.120;2022-07-23T05:04:28;19.50;;;15.73;;
12910;SDS011;6523;49.758;6.120;2022-07-23T05:06:53;19.07;;;16.07;;
12910;SDS011;6523;49.758;6.120;2022-07-23T05:09:19;23.03;;;16.43;;
12910;SDS011;6523;49.758;6.120;2022-07-23T05:11:44;19.97;;;16.47;;
12910;SDS011;6523;49.758;6.120;2022-07-23T05:14:10;20.13;;;16.17;;
12910;SDS011;6523;49.758;6.120;2022-07-23T05:16:37;20.80;;;16.97;;
12910;SDS011;6523;49.758;6.120;2022-07-23T05:19:03;20.50;;;16.53;;
12910;SDS011;6523;49.758;6.120;2022-07-23T05:21:29;19.77;;;16.53;;
12910;SDS011;6523;49.758;6.120;2022-07-23T05:23:54;21.57;;;16.90;;
12910;SDS011;6523;49.758;6.120;2022-07-23T05:26:20;21.07;;;16.93;;
12910;SDS011;6523;49.758;6.120;2022-07-23T05:28:45;19.43;;;15.37;;
12910;SDS011;6523;49.758;6.120;2022-07-23T05:31:11;21.67;;;17.37;;
12910;SDS011;6523;49.758;6.120;2022-07-23T05:33:36;21.77;;;18.43;;
12910;SDS011;6523;49.758;6.120;2022-07-23T05:36:03;23.93;;;17.83;;
12910;SDS011;6523;49.758;6.120;2022-07-23T05:38:29;25.60;;;18.60;;
12910;SDS011;6523;49.758;6.120;2022-07-23T05:40:56;25.73;;;19.97;;
12910;SDS011;6523;49.758;6.120;2022-07-23T05:43:22;22.17;;;18.53;;
12910;SDS011;6523;49.758;6.120;2022-07-23T05:45:47;20.97;;;16.97;;
12910;SDS011;6523;49.758;6.120;2022-07-23T05:48:13;25.30;;;19.00;;
12910;SDS011;6523;49.758;6.120;2022-07-23T05:50:39;24.70;;;18.03;;
12910;SDS011;6523;49.758;6.120;2022-07-23T05:53:04;24.70;;;17.93;;
12910;SDS011;6523;49.758;6.120;2022-07-23T05:55:30;25.37;;;19.40;;
12910;SDS011;6523;49.758;6.120;2022-07-23T05:57:56;26.20;;;19.27;;
12910;SDS011;6523;49.758;6.120;2022-07-23T06:00:23;24.63;;;19.33;;
12910;SDS011;6523;49.758;6.120;2022-07-23T06:02:49;24.53;;;19.20;;
12910;SDS011;6523;49.758;6.120;2022-07-23T06:05:15;26.13;;;19.83;;
12910;SDS011;6523;49.758;6.120;2022-07-23T06:07:41;31.53;;;21.60;;
12910;SDS011;6523;49.758;6.120;2022-07-23T06:10:07;26.80;;;19.63;;
12910;SDS011;6523;49.758;6.120;2022-07-23T06:12:33;26.97;;;21.33;;
12910;SDS011;6523;49.758;6.120;2022-07-23T06:14:59;25.67;;;20.00;;
12910;SDS011;6523;49.758;6.120;2022-07-23T06:17:24;27.73;;;20.43;;
12910;SDS011;6523;49.758;6.120;2022-07-23T06:19:50;29.50;;;20.33;;
12910;SDS011;6523;49.758;6.120;2022-07-23T06:22:15;27.40;;;22.20;;
12910;SDS011;6523;49.758;6.120;2022-07-23T06:24:41;30.33;;;21.27;;
12910;SDS011;6523;49.758;6.120;2022-07-23T06:27:07;32.27;;;23.10;;
12910;SDS011;6523;49.758;6.120;2022-07-23T06:29:32;31.03;;;21.33;;
12910;SDS011;6523;49.758;6.120;2022-07-23T06:31:58;29.20;;;22.13;;
12910;SDS011;6523;49.758;6.120;2022-07-23T06:34:23;29.30;;;21.90;;
12910;SDS011;6523;49.758;6.120;2022-07-23T06:36:50;33.10;;;23.03;;
12910;SDS011;6523;49.758;6.120;2022-07-23T06:39:16;32.80;;;23.73;;
12910;SDS011;6523;49.758;6.120;2022-07-23T06:41:41;32.40;;;22.33;;
12910;SDS011;6523;49.758;6.120;2022-07-23T06:44:07;31.70;;;21.27;;
12910;SDS011;6523;49.758;6.120;2022-07-23T06:46:33;33.37;;;21.53;;
12910;SDS011;6523;49.758;6.120;2022-07-23T06:48:58;32.27;;;23.00;;
12910;SDS011;6523;49.758;6.120;2022-07-23T06:51:24;33.10;;;21.43;;
12910;SDS011;6523;49.758;6.120;2022-07-23T06:53:50;30.07;;;21.53;;
12910;SDS011;6523;49.758;6.120;2022-07-23T06:56:15;30.17;;;22.17;;
12910;SDS011;6523;49.758;6.120;2022-07-23T06:58:41;32.33;;;23.60;;
12910;SDS011;6523;49.758;6.120;2022-07-23T07:01:06;29.67;;;22.40;;
12910;SDS011;6523;49.758;6.120;2022-07-23T07:03:32;26.67;;;21.30;;
12910;SDS011;6523;49.758;6.120;2022-07-23T07:05:58;27.60;;;20.83;;
12910;SDS011;6523;49.758;6.120;2022-07-23T07:08:24;28.87;;;21.30;;
12910;SDS011;6523;49.758;6.120;2022-07-23T07:10:49;29.40;;;20.53;;
12910;SDS011;6523;49.758;6.120;2022-07-23T07:13:15;27.47;;;20.90;;
12910;SDS011;6523;49.758;6.120;2022-07-23T07:15:41;28.70;;;20.57;;
12910;SDS011;6523;49.758;6.120;2022-07-23T07:18:07;29.33;;;20.93;;
12910;SDS011;6523;49.758;6.120;2022-07-23T07:20:32;25.30;;;18.60;;
12910;SDS011;6523;49.758;6.120;2022-07-23T07:22:58;25.67;;;20.03;;
12910;SDS011;6523;49.758;6.120;2022-07-23T07:25:24;25.30;;;19.80;;
12910;SDS011;6523;49.758;6.120;2022-07-23T07:27:49;29.63;;;20.50;;
12910;SDS011;6523;49.758;6.120;2022-07-23T07:30:15;27.20;;;20.50;;
12910;SDS011;6523;49.758;6.120;2022-07-23T07:32:41;25.27;;;19.93;;
12910;SDS011;6523;49.758;6.120;2022-07-23T07:35:06;25.47;;;17.70;;
12910;SDS011;6523;49.758;6.120;2022-07-23T07:37:32;24.50;;;18.83;;
12910;SDS011;6523;49.758;6.120;2022-07-23T07:39:58;22.83;;;18.30;;
12910;SDS011;6523;49.758;6.120;2022-07-23T07:42:23;24.37;;;18.50;;
12910;SDS011;6523;49.758;6.120;2022-07-23T07:44:49;24.63;;;18.60;;
12910;SDS011;6523;49.758;6.120;2022-07-23T07:47:15;20.37;;;17.60;;
12910;SDS011;6523;49.758;6.120;2022-07-23T07:49:41;22.87;;;16.73;;
12910;SDS011;6523;49.758;6.120;2022-07-23T07:52:07;20.50;;;17.13;;
12910;SDS011;6523;49.758;6.120;2022-07-23T07:54:33;20.40;;;16.63;;
12910;SDS011;6523;49.758;6.120;2022-07-23T07:56:58;19.53;;;16.73;;
12910;SDS011;6523;49.758;6.120;2022-07-23T07:59:24;22.40;;;16.37;;
12910;SDS011;6523;49.758;6.120;2022-07-23T08:01:50;19.27;;;15.40;;
12910;SDS011;6523;49.758;6.120;2022-07-23T08:04:16;24.07;;;16.27;;
12910;SDS011;6523;49.758;6.120;2022-07-23T08:06:41;18.77;;;15.60;;
12910;SDS011;6523;49.758;6.120;2022-07-23T08:09:07;18.80;;;14.77;;
12910;SDS011;6523;49.758;6.120;2022-07-23T08:11:32;18.23;;;14.93;;
12910;SDS011;6523;49.758;6.120;2022-07-23T08:13:58;16.77;;;14.97;;
12910;SDS011;6523;49.758;6.120;2022-07-23T08:16:24;20.97;;;15.00;;
12910;SDS011;6523;49.758;6.120;2022-07-23T08:18:49;18.67;;;14.77;;
12910;SDS011;6523;49.758;6.120;2022-07-23T08:21:15;19.53;;;14.87;;
12910;SDS011;6523;49.758;6.120;2022-07-23T08:23:40;16.00;;;13.67;;
12910;SDS011;6523;49.758;6.120;2022-07-23T08:26:06;15.80;;;12.10;;
12910;SDS011;6523;49.758;6.120;2022-07-23T08:28:32;15.93;;;12.73;;
12910;SDS011;6523;49.758;6.120;2022-07-23T08:30:58;15.40;;;12.63;;
12910;SDS011;6523;49.758;6.120;2022-07-23T08:33:24;18.33;;;12.73;;
12910;SDS011;6523;49.758;6.120;2022-07-23T08:35:50;14.47;;;11.67;;
12910;SDS011;6523;49.758;6.120;2022-07-23T08:38:18;14.47;;;11.73;;
12910;SDS011;6523;49.758;6.120;2022-07-23T08:40:50;14.20;;;12.70;;
12910;SDS011;6523;49.758;6.120;2022-07-23T08:43:18;13.83;;;11.30;;
12910;SDS011;6523;49.758;6.120;2022-07-23T08:45:47;13.87;;;12.40;;
12910;SDS011;6523;49.758;6.120;2022-07-23T08:48:14;11.20;;;10.10;;
12910;SDS011;6523;49.758;6.120;2022-07-23T08:50:42;13.60;;;11.00;;
12910;SDS011;6523;49.758;6.120;2022-07-23T08:53:09;12.40;;;11.03;;
12910;SDS011;6523;49.758;6.120;2022-07-23T08:55:35;13.30;;;11.20;;
12910;SDS011;6523;49.758;6.120;2022-07-23T08:58:01;13.07;;;11.67;;
12910;SDS011;6523;49.758;6.120;2022-07-23T09:00:27;12.80;;;11.50;;
12910;SDS011;6523;49.758;6.120;2022-07-23T09:02:53;12.53;;;11.23;;
12910;SDS011;6523;49.758;6.120;2022-07-23T09:05:19;13.93;;;10.93;;
12910;SDS011;6523;49.758;6.120;2022-07-23T09:10:36;12.90;;;10.47;;
12910;SDS011;6523;49.758;6.120;2022-07-23T09:13:37;14.23;;;11.90;;
12910;SDS011;6523;49.758;6.120;2022-07-23T09:16:26;12.57;;;11.27;;
12910;SDS011;6523;49.758;6.120;2022-07-23T09:24:03;17.57;;;11.30;;
12910;SDS011;6523;49.758;6.120;2022-07-23T09:34:29;14.07;;;12.17;;
12910;SDS011;6523;49.758;6.120;2022-07-23T09:36:58;11.90;;;10.67;;
12910;SDS011;6523;49.758;6.120;2022-07-23T09:39:34;14.10;;;10.43;;
12910;SDS011;6523;49.758;6.120;2022-07-23T09:42:14;11.63;;;10.43;;
12910;SDS011;6523;49.758;6.120;2022-07-23T09:44:50;12.27;;;11.00;;
12910;SDS011;6523;49.758;6.120;2022-07-23T09:47:18;12.17;;;10.43;;
12910;SDS011;6523;49.758;6.120;2022-07-23T09:50:03;11.90;;;10.70;;
12910;SDS011;6523;49.758;6.120;2022-07-23T09:52:42;12.60;;;11.30;;
12910;SDS011;6523;49.758;6.120;2022-07-23T09:55:09;12.80;;;11.47;;
12910;SDS011;6523;49.758;6.120;2022-07-23T09:57:35;13.47;;;12.07;;
12910;SDS011;6523;49.758;6.120;2022-07-23T10:00:02;13.70;;;11.90;;
12910;SDS011;6523;49.758;6.120;2022-07-23T10:02:31;12.83;;;11.47;;
12910;SDS011;6523;49.758;6.120;2022-07-23T10:04:58;13.30;;;11.47;;
12910;SDS011;6523;49.758;6.120;2022-07-23T10:07:26;11.73;;;10.53;;
12910;SDS011;6523;49.758;6.120;2022-07-23T10:09:54;11.13;;;9.80;;
12910;SDS011;6523;49.758;6.120;2022-07-23T10:12:20;12.40;;;10.50;;
12910;SDS011;6523;49.758;6.120;2022-07-23T10:15:10;10.97;;;9.83;;
12910;SDS011;6523;49.758;6.120;2022-07-23T10:17:36;12.03;;;10.63;;
12910;SDS011;6523;49.758;6.120;2022-07-23T10:20:02;12.07;;;10.80;;
12910;SDS011;6523;49.758;6.120;2022-07-23T10:22:40;10.47;;;9.47;;
12910;SDS011;6523;49.758;6.120;2022-07-23T10:33:29;11.80;;;10.60;;
12910;SDS011;6523;49.758;6.120;2022-07-23T10:38:57;11.80;;;10.60;;
12910;SDS011;6523;49.758;6.120;2022-07-23T10:41:37;10.53;;;9.23;;
12910;SDS011;6523;49.758;6.120;2022-07-23T10:44:07;11.67;;;10.47;;
12910;SDS011;6523;49.758;6.120;2022-07-23T10:46:54;10.67;;;9.60;;
12910;SDS011;6523;49.758;6.120;2022-07-23T10:49:43;10.43;;;9.33;;
12910;SDS011;6523;49.758;6.120;2022-07-23T10:54:51;10.63;;;8.93;;
12910;SDS011;6523;49.758;6.120;2022-07-23T10:57:26;10.80;;;9.67;;
12910;SDS011;6523;49.758;6.120;2022-07-23T11:02:33;10.47;;;9.47;;
12910;SDS011;6523;49.758;6.120;2022-07-23T11:05:00;11.97;;;10.77;;
12910;SDS011;6523;49.758;6.120;2022-07-23T11:10:47;11.33;;;10.10;;
12910;SDS011;6523;49.758;6.120;2022-07-23T11:31:53;10.03;;;9.13;;
12910;SDS011;6523;49.758;6.120;2022-07-23T11:34:29;10.47;;;9.33;;
12910;SDS011;6523;49.758;6.120;2022-07-23T11:36:56;11.70;;;10.60;;
12910;SDS011;6523;49.758;6.120;2022-07-23T11:39:24;9.63;;;8.70;;
12910;SDS011;6523;49.758;6.120;2022-07-23T11:41:52;9.70;;;8.73;;
12910;SDS011;6523;49.758;6.120;2022-07-23T11:44:30;10.47;;;9.37;;
12910;SDS011;6523;49.758;6.120;2022-07-23T11:47:05;9.67;;;8.83;;
12910;SDS011;6523;49.758;6.120;2022-07-23T11:49:36;9.50;;;8.60;;
12910;SDS011;6523;49.758;6.120;2022-07-23T11:54:31;9.17;;;8.27;;
12910;SDS011;6523;49.758;6.120;2022-07-23T11:56:58;10.63;;;8.80;;
12910;SDS011;6523;49.758;6.120;2022-07-23T11:59:25;9.73;;;8.83;;
12910;SDS011;6523;49.758;6.120;2022-07-23T12:01:55;9.83;;;8.87;;
12910;SDS011;6523;49.758;6.120;2022-07-23T12:04:36;10.53;;;9.50;;
12910;SDS011;6523;49.758;6.120;2022-07-23T12:09:57;9.77;;;8.83;;
12910;SDS011;6523;49.758;6.120;2022-07-23T12:12:25;8.97;;;8.17;;
12910;SDS011;6523;49.758;6.120;2022-07-23T12:14:51;9.83;;;8.83;;
12910;SDS011;6523;49.758;6.120;2022-07-23T12:17:22;10.43;;;9.43;;
12910;SDS011;6523;49.758;6.120;2022-07-23T12:19:59;10.73;;;9.50;;
12910;SDS011;6523;49.758;6.120;2022-07-23T12:22:33;11.47;;;10.20;;
12910;SDS011;6523;49.758;6.120;2022-07-23T12:25:04;10.27;;;9.30;;
12910;SDS011;6523;49.758;6.120;2022-07-23T12:27:40;9.30;;;8.40;;
12910;SDS011;6523;49.758;6.120;2022-07-23T12:30:21;9.90;;;9.00;;
12910;SDS011;6523;49.758;6.120;2022-07-23T12:32:53;9.63;;;8.73;;
12910;SDS011;6523;49.758;6.120;2022-07-23T12:35:20;9.27;;;8.47;;
12910;SDS011;6523;49.758;6.120;2022-07-23T12:37:48;10.00;;;9.07;;
12910;SDS011;6523;49.758;6.120;2022-07-23T12:43:01;10.20;;;9.30;;
12910;SDS011;6523;49.758;6.120;2022-07-23T12:45:42;9.90;;;9.00;;
12910;SDS011;6523;49.758;6.120;2022-07-23T12:48:15;10.00;;;9.10;;
12910;SDS011;6523;49.758;6.120;2022-07-23T12:51:21;9.47;;;8.47;;
12910;SDS011;6523;49.758;6.120;2022-07-23T12:53:45;10.13;;;9.23;;
12910;SDS011;6523;49.758;6.120;2022-07-23T12:56:16;9.53;;;8.53;;
12910;SDS011;6523;49.758;6.120;2022-07-23T12:58:45;10.33;;;9.43;;
12910;SDS011;6523;49.758;6.120;2022-07-23T13:09:08;9.80;;;8.90;;
12910;SDS011;6523;49.758;6.120;2022-07-23T13:11:37;11.30;;;9.50;;
12910;SDS011;6523;49.758;6.120;2022-07-23T13:14:03;9.53;;;8.70;;
12910;SDS011;6523;49.758;6.120;2022-07-23T13:16:29;10.33;;;9.33;;
12910;SDS011;6523;49.758;6.120;2022-07-23T13:18:56;10.47;;;9.47;;
12910;SDS011;6523;49.758;6.120;2022-07-23T13:21:22;10.50;;;9.43;;
12910;SDS011;6523;49.758;6.120;2022-07-23T13:23:48;10.57;;;9.57;;
12910;SDS011;6523;49.758;6.120;2022-07-23T13:26:14;11.10;;;10.07;;
12910;SDS011;6523;49.758;6.120;2022-07-23T13:28:40;11.87;;;10.77;;
12910;SDS011;6523;49.758;6.120;2022-07-23T13:31:06;11.37;;;10.27;;
12910;SDS011;6523;49.758;6.120;2022-07-23T13:33:32;10.93;;;9.93;;
12910;SDS011;6523;49.758;6.120;2022-07-23T13:35:58;11.70;;;10.50;;
12910;SDS011;6523;49.758;6.120;2022-07-23T13:38:24;11.73;;;10.63;;
12910;SDS011;6523;49.758;6.120;2022-07-23T13:40:50;11.23;;;10.13;;
12910;SDS011;6523;49.758;6.120;2022-07-23T13:43:18;9.50;;;8.70;;
12910;SDS011;6523;49.758;6.120;2022-07-23T13:45:45;10.50;;;9.40;;
12910;SDS011;6523;49.758;6.120;2022-07-23T13:48:12;10.60;;;9.70;;
12910;SDS011;6523;49.758;6.120;2022-07-23T13:50:39;9.97;;;9.17;;
12910;SDS011;6523;49.758;6.120;2022-07-23T13:53:07;11.10;;;10.10;;
12910;SDS011;6523;49.758;6.120;2022-07-23T13:55:34;10.50;;;9.63;;
12910;SDS011;6523;49.758;6.120;2022-07-23T13:58:00;10.57;;;9.67;;
12910;SDS011;6523;49.758;6.120;2022-07-23T14:00:26;11.43;;;10.33;;
12910;SDS011;6523;49.758;6.120;2022-07-23T14:02:53;10.87;;;9.87;;
12910;SDS011;6523;49.758;6.120;2022-07-23T14:05:18;10.77;;;9.87;;
12910;SDS011;6523;49.758;6.120;2022-07-23T14:07:44;9.77;;;8.87;;
12910;SDS011;6523;49.758;6.120;2022-07-23T14:10:12;10.40;;;9.50;;
12910;SDS011;6523;49.758;6.120;2022-07-23T14:12:38;10.80;;;9.63;;
12910;SDS011;6523;49.758;6.120;2022-07-23T14:15:04;10.27;;;9.27;;
12910;SDS011;6523;49.758;6.120;2022-07-23T14:17:31;10.43;;;9.30;;
12910;SDS011;6523;49.758;6.120;2022-07-23T14:19:58;11.00;;;10.00;;
12910;SDS011;6523;49.758;6.120;2022-07-23T14:22:23;10.53;;;9.57;;
12910;SDS011;6523;49.758;6.120;2022-07-23T14:24:49;10.00;;;9.10;;
12910;SDS011;6523;49.758;6.120;2022-07-23T14:27:15;9.13;;;8.33;;
12910;SDS011;6523;49.758;6.120;2022-07-23T14:29:41;9.73;;;8.73;;
12910;SDS011;6523;49.758;6.120;2022-07-23T14:32:07;9.30;;;8.40;;
12910;SDS011;6523;49.758;6.120;2022-07-23T14:34:33;9.20;;;8.40;;
12910;SDS011;6523;49.758;6.120;2022-07-23T14:36:59;10.63;;;8.80;;
12910;SDS011;6523;49.758;6.120;2022-07-23T14:39:25;9.57;;;8.67;;
12910;SDS011;6523;49.758;6.120;2022-07-23T14:41:51;8.93;;;8.13;;
12910;SDS011;6523;49.758;6.120;2022-07-23T14:44:17;8.73;;;7.93;;
12910;SDS011;6523;49.758;6.120;2022-07-23T14:46:42;8.57;;;7.77;;
12910;SDS011;6523;49.758;6.120;2022-07-23T14:49:08;7.93;;;7.23;;
12910;SDS011;6523;49.758;6.120;2022-07-23T14:51:34;8.10;;;7.30;;
12910;SDS011;6523;49.758;6.120;2022-07-23T14:54:01;7.27;;;6.57;;
12910;SDS011;6523;49.758;6.120;2022-07-23T14:56:27;6.67;;;6.07;;
12910;SDS011;6523;49.758;6.120;2022-07-23T14:58:53;6.50;;;5.90;;
12910;SDS011;6523;49.758;6.120;2022-07-23T15:01:20;5.90;;;5.40;;
12910;SDS011;6523;49.758;6.120;2022-07-23T15:03:47;6.77;;;6.10;;
12910;SDS011;6523;49.758;6.120;2022-07-23T15:06:13;6.73;;;5.80;;
12910;SDS011;6523;49.758;6.120;2022-07-23T15:08:39;6.73;;;6.17;;
12910;SDS011;6523;49.758;6.120;2022-07-23T15:11:04;7.23;;;6.63;;
12910;SDS011;6523;49.758;6.120;2022-07-23T15:13:30;8.50;;;7.03;;
12910;SDS011;6523;49.758;6.120;2022-07-23T15:15:55;7.27;;;5.70;;
12910;SDS011;6523;49.758;6.120;2022-07-23T15:18:21;7.60;;;6.90;;
12910;SDS011;6523;49.758;6.120;2022-07-23T15:20:47;6.70;;;6.00;;
12910;SDS011;6523;49.758;6.120;2022-07-23T15:23:12;7.10;;;6.40;;
12910;SDS011;6523;49.758;6.120;2022-07-23T15:25:38;8.07;;;7.37;;
12910;SDS011;6523;49.758;6.120;2022-07-23T15:28:04;6.50;;;5.90;;
12910;SDS011;6523;49.758;6.120;2022-07-23T15:30:29;7.17;;;6.57;;
12910;SDS011;6523;49.758;6.120;2022-07-23T15:32:55;6.53;;;5.93;;
12910;SDS011;6523;49.758;6.120;2022-07-23T15:35:22;6.97;;;6.37;;
12910;SDS011;6523;49.758;6.120;2022-07-23T15:37:48;7.27;;;6.57;;
12910;SDS011;6523;49.758;6.120;2022-07-23T15:40:14;5.97;;;5.57;;
12910;SDS011;6523;49.758;6.120;2022-07-23T15:42:39;6.17;;;5.67;;
12910;SDS011;6523;49.758;6.120;2022-07-23T15:45:05;6.37;;;5.87;;
12910;SDS011;6523;49.758;6.120;2022-07-23T15:47:31;6.27;;;5.70;;
12910;SDS011;6523;49.758;6.120;2022-07-23T15:49:57;6.03;;;5.53;;